This is the latest recevied weather packets stored in our database for station/object OK1KZE-6. If no packets are shown the sender has not sent any weather packets the latest 1 day(s).
| Time | Temp. | Humidity | Pressure | Rain* | Wind** | Luminosity | Snow |
|---|---|---|---|---|---|---|---|
| 1777955707 | 14.44° C | 79% | 1010.9 hPa | - | 1.34 m/s, 146° | - | - |
| 1777955408 | 14.44° C | 78% | 1011.1 hPa | - | 0.89 m/s, 135° | - | - |
| 1777955110 | 13.89° C | 82% | 1011 hPa | - | 1.79 m/s, 132° | - | - |
| 1777954808 | 13.33° C | 86% | 1011 hPa | - | 2.24 m/s, 140° | - | - |
| 1777954508 | 13.33° C | 86% | 1011.1 hPa | - | 2.24 m/s, 126° | - | - |
| 1777954208 | 13.89° C | 82% | 1011.2 hPa | - | 1.79 m/s, 101° | - | - |
| 1777953908 | 12.78° C | 89% | 1011 hPa | - | 1.79 m/s, 154° | - | - |
| 1777953610 | 12.78° C | 87% | 1011.2 hPa | - | 2.24 m/s, 172° | - | - |
| 1777953007 | 13.33° C | 84% | 1011.2 hPa | - | 3.13 m/s, 124° | - | - |
| 1777952706 | 13.33° C | 84% | 1011 hPa | - | 3.13 m/s, 133° | - | - |
| 1777952407 | 13.89° C | 80% | 1011 hPa | - | 2.24 m/s, 120° | - | - |
| 1777952108 | 13.89° C | 81% | 1011.2 hPa | - | 2.68 m/s, 111° | - | - |
| 1777951507 | 13.89° C | 83% | 1011.2 hPa | - | 2.68 m/s, 121° | - | - |
| 1777951207 | 13.89° C | 84% | 1011.2 hPa | - | 2.68 m/s, 105° | - | - |
| 1777950908 | 13.89° C | 84% | 1011.4 hPa | - | 2.24 m/s, 111° | - | - |
| 1777950608 | 13.89° C | 80% | 1011.3 hPa | - | 1.79 m/s, 108° | - | - |
| 1777950308 | 13.33° C | 85% | 1011.5 hPa | - | 2.24 m/s, 115° | - | - |
| 1777950008 | 13.89° C | 84% | 1011.5 hPa | - | 2.24 m/s, 118° | - | - |
| 1777949707 | 13.89° C | 83% | 1011.5 hPa | - | 2.68 m/s, 119° | - | - |
| 1777949408 | 13.89° C | 81% | 1011.6 hPa | - | 2.68 m/s, 117° | - | - |
| 1777949108 | 14.44° C | 79% | 1011.5 hPa | - | 3.58 m/s, 120° | - | - |
| 1777948808 | 14.44° C | 79% | 1011.6 hPa | - | 4.02 m/s, 113° | - | - |
| 1777948507 | 14.44° C | 77% | 1011.5 hPa | - | 4.92 m/s, 117° | - | - |
| 1777948208 | 15° C | 72% | 1011.5 hPa | - | 4.92 m/s, 98° | - | - |
| 1777947907 | 15.56° C | 72% | 1011.6 hPa | - | 4.92 m/s, 98° | - | - |
* Rain since midnight (hover to see other rain measurements)
** Current wind speed in m/s (hover to see current wind gust speed)